Time;durP1;ratioP1;P1;durP2;ratioP2;P2;SDS_P1;SDS_P2;PMS_P1;PMS_P2;Temp;Humidity;BMP_temperature;BMP_pressure;BME280_temperature;BME280_humidity;BME280_pressure;Samples;Min_cycle;Max_cycle;Signal;HPM_P1;HPM_P2
2022/01/28 00:00:13;;;;;;;;;;;22.60;28.70;;;;;;467542;255;1433;-79
2022/01/28 00:02:30;;;;;;;;;;;21.90;29.10;;;;;;467781;255;1436;-79
2022/01/28 00:04:16;;;;;;;;;;;22.40;28.90;;;;;;466558;255;2189;-79
2022/01/28 00:06:15;;;;;;;;;;;22.00;29.10;;;;;;467633;251;1391;-79
2022/01/28 00:08:17;;;;;;;;;;;21.70;29.30;;;;;;467938;255;1075;-79
2022/01/28 00:10:18;;;;;;;;;;;21.50;29.50;;;;;;467764;255;1076;-79
2022/01/28 00:12:19;;;;;;;;;;;21.50;29.60;;;;;;467817;255;1126;-79
2022/01/28 00:14:28;;;;;;;;;;;21.20;29.80;;;;;;467857;255;970;-79
2022/01/28 00:19:01;;;;;;;;;;;21.30;30.00;;;;;;467819;254;1139;-79
2022/01/28 00:37:22;;;;;;;;;;;20.40;31.00;;;;;;467785;255;1089;-79
2022/01/28 00:39:08;;;;;;;;;;;20.30;31.00;;;;;;466793;254;1471;-79
2022/01/28 00:41:10;;;;;;;;;;;20.30;31.00;;;;;;467715;255;1206;-79
2022/01/28 00:43:11;;;;;;;;;;;20.30;31.00;;;;;;467845;255;2184;-79
2022/01/28 00:45:12;;;;;;;;;;;20.10;31.20;;;;;;467828;255;982;-79
2022/01/28 00:47:14;;;;;;;;;;;20.30;31.00;;;;;;467723;255;1184;-79
2022/01/28 00:49:15;;;;;;;;;;;20.30;31.00;;;;;;467759;255;995;-79
2022/01/28 00:51:16;;;;;;;;;;;20.10;31.20;;;;;;467710;255;1348;-79
2022/01/28 00:53:18;;;;;;;;;;;20.00;31.50;;;;;;467816;255;1148;-79
2022/01/28 00:55:19;;;;;;;;;;;20.00;31.60;;;;;;467792;255;1175;-79
2022/01/28 00:57:20;;;;;;;;;;;20.00;31.50;;;;;;467843;255;1205;-79
2022/01/28 00:59:22;;;;;;;;;;;20.40;31.20;;;;;;467896;255;933;-79
2022/01/28 01:01:23;;;;;;;;;;;20.20;31.20;;;;;;467806;255;1130;-79
2022/01/28 01:03:24;;;;;;;;;;;20.00;31.20;;;;;;467855;255;2137;-79
2022/01/28 01:05:26;;;;;;;;;;;20.20;31.30;;;;;;467814;255;1084;-79
2022/01/28 01:07:27;;;;;;;;;;;19.90;31.70;;;;;;467885;255;1158;-79
2022/01/28 01:09:28;;;;;;;;;;;20.20;31.30;;;;;;467856;255;962;-79
2022/01/28 01:11:29;;;;;;;;;;;20.10;31.50;;;;;;467803;255;1193;-79
2022/01/28 01:13:35;;;;;;;;;;;20.00;31.50;;;;;;467797;255;1141;-79
2022/01/28 01:15:37;;;;;;;;;;;20.10;31.60;;;;;;467715;255;1482;-79
2022/01/28 01:17:38;;;;;;;;;;;19.80;31.80;;;;;;467683;255;1457;-79
2022/01/28 01:19:40;;;;;;;;;;;19.80;31.80;;;;;;467697;255;1413;-79
2022/01/28 01:21:39;;;;;;;;;;;19.70;32.00;;;;;;467501;255;1465;-79
2022/01/28 01:23:47;;;;;;;;;;;19.60;32.00;;;;;;467652;255;2204;-79
2022/01/28 01:25:45;;;;;;;;;;;19.70;31.90;;;;;;467182;255;1411;-79
2022/01/28 01:27:48;;;;;;;;;;;19.50;32.10;;;;;;467602;255;1387;-79
2022/01/28 01:29:47;;;;;;;;;;;20.20;31.60;;;;;;467647;255;1531;-79
2022/01/28 01:31:47;;;;;;;;;;;19.90;31.60;;;;;;467831;255;1341;-79
2022/01/28 01:33:55;;;;;;;;;;;19.80;31.70;;;;;;467790;255;1012;-80
2022/01/28 01:35:50;;;;;;;;;;;19.80;31.90;;;;;;467350;255;1453;-79
2022/01/28 01:37:51;;;;;;;;;;;19.70;31.80;;;;;;467930;255;1199;-79
2022/01/28 01:39:53;;;;;;;;;;;19.60;31.90;;;;;;467798;255;1075;-79
2022/01/28 01:41:58;;;;;;;;;;;19.70;31.80;;;;;;467749;255;1251;-79
2022/01/28 01:44:00;;;;;;;;;;;19.60;31.90;;;;;;467545;254;2199;-79
2022/01/28 01:46:10;;;;;;;;;;;19.50;32.10;;;;;;467534;255;1366;-79
2022/01/28 01:52:41;;;;;;;;;;;19.80;31.80;;;;;;467911;255;1136;-79
2022/01/28 01:54:42;;;;;;;;;;;20.10;31.40;;;;;;467776;255;1081;-79
2022/01/28 01:56:43;;;;;;;;;;;20.20;31.30;;;;;;467716;255;1244;-79
2022/01/28 01:58:44;;;;;;;;;;;20.00;31.30;;;;;;467778;255;1111;-79
2022/01/28 02:00:46;;;;;;;;;;;20.60;30.50;;;;;;467770;255;996;-79
2022/01/28 02:02:48;;;;;;;;;;;20.40;30.80;;;;;;467782;255;1125;-79
2022/01/28 02:04:48;;;;;;;;;;;20.60;30.90;;;;;;467795;255;2196;-79
2022/01/28 02:06:50;;;;;;;;;;;20.40;30.50;;;;;;467799;255;1199;-79
2022/01/28 02:08:51;;;;;;;;;;;20.80;30.40;;;;;;467833;255;1150;-79
2022/01/28 02:10:56;;;;;;;;;;;20.90;30.10;;;;;;467783;255;1165;-79
2022/01/28 02:12:54;;;;;;;;;;;20.50;30.40;;;;;;467613;255;1419;-79
2022/01/28 02:14:55;;;;;;;;;;;20.90;30.10;;;;;;467834;255;973;-79
2022/01/28 02:16:57;;;;;;;;;;;20.60;30.40;;;;;;467860;255;1232;-80
2022/01/28 02:18:58;;;;;;;;;;;20.60;30.10;;;;;;467867;255;949;-79
2022/01/28 02:21:05;;;;;;;;;;;21.10;30.00;;;;;;467792;255;1186;-79
2022/01/28 02:23:01;;;;;;;;;;;20.70;30.20;;;;;;467459;255;1433;-79
2022/01/28 02:25:02;;;;;;;;;;;20.70;30.10;;;;;;467761;255;2129;-79
2022/01/28 02:27:03;;;;;;;;;;;20.50;30.30;;;;;;467762;255;1190;-80
2022/01/28 02:29:10;;;;;;;;;;;20.80;30.30;;;;;;467841;255;1124;-80
2022/01/28 02:31:07;;;;;;;;;;;21.10;29.70;;;;;;467522;255;1448;-79
2022/01/28 02:33:12;;;;;;;;;;;21.20;29.80;;;;;;467853;255;1029;-79
2022/01/28 02:35:11;;;;;;;;;;;20.90;29.90;;;;;;467736;255;1404;-79
2022/01/28 02:37:12;;;;;;;;;;;21.10;29.80;;;;;;467810;255;1183;-79
2022/01/28 02:39:13;;;;;;;;;;;21.00;29.70;;;;;;467829;255;962;-79
2022/01/28 02:41:15;;;;;;;;;;;21.10;29.70;;;;;;467697;255;1230;-79
2022/01/28 02:43:28;;;;;;;;;;;21.20;29.70;;;;;;467821;255;1144;-79
2022/01/28 02:45:27;;;;;;;;;;;21.10;29.80;;;;;;467091;255;2126;-79
2022/01/28 02:47:32;;;;;;;;;;;20.80;29.90;;;;;;467614;255;1339;-79
2022/01/28 02:49:35;;;;;;;;;;;20.80;29.80;;;;;;467735;255;1427;-79
2022/01/28 02:51:32;;;;;;;;;;;21.00;29.90;;;;;;467501;254;1416;-79
2022/01/28 02:53:40;;;;;;;;;;;20.70;30.00;;;;;;467846;255;1133;-79
2022/01/28 02:55:41;;;;;;;;;;;20.80;30.00;;;;;;467692;255;1439;-79
2022/01/28 02:57:51;;;;;;;;;;;21.20;29.90;;;;;;467691;254;1469;-79
2022/01/28 02:59:42;;;;;;;;;;;21.50;29.60;;;;;;467129;255;1413;-79
2022/01/28 03:01:43;;;;;;;;;;;21.40;29.30;;;;;;467722;255;1241;-79
2022/01/28 03:03:44;;;;;;;;;;;21.50;29.40;;;;;;467786;255;2184;-79
2022/01/28 03:05:46;;;;;;;;;;;21.30;29.40;;;;;;467796;255;1304;-79
2022/01/28 03:07:47;;;;;;;;;;;21.80;29.20;;;;;;467885;255;1214;-79
2022/01/28 03:09:52;;;;;;;;;;;21.30;29.40;;;;;;467899;255;1251;-79
2022/01/28 03:12:00;;;;;;;;;;;21.30;29.50;;;;;;467638;255;1371;-79
2022/01/28 03:14:15;;;;;;;;;;;21.20;29.50;;;;;;467666;255;1468;-79
2022/01/28 03:16:10;;;;;;;;;;;21.20;29.40;;;;;;467056;255;1454;-80
2022/01/28 03:18:13;;;;;;;;;;;21.10;29.60;;;;;;467757;255;1510;-79
2022/01/28 03:20:31;;;;;;;;;;;21.20;29.50;;;;;;467503;255;1444;-79
2022/01/28 03:22:18;;;;;;;;;;;21.20;29.60;;;;;;466665;255;1420;-79
2022/01/28 03:24:19;;;;;;;;;;;21.00;29.90;;;;;;467833;255;2204;-79
2022/01/28 03:26:20;;;;;;;;;;;21.30;29.60;;;;;;467703;255;1178;-79
2022/01/28 03:28:22;;;;;;;;;;;21.10;29.70;;;;;;467757;254;1229;-79
2022/01/28 03:30:23;;;;;;;;;;;21.70;29.10;;;;;;467751;255;1048;-79
2022/01/28 03:32:24;;;;;;;;;;;21.60;29.30;;;;;;467826;255;1138;-79
2022/01/28 03:34:25;;;;;;;;;;;21.90;29.10;;;;;;467754;255;1219;-79
2022/01/28 03:36:27;;;;;;;;;;;21.70;29.00;;;;;;467749;255;1145;-79
2022/01/28 03:38:28;;;;;;;;;;;21.90;28.90;;;;;;467779;255;1102;-79
2022/01/28 03:40:31;;;;;;;;;;;22.00;28.70;;;;;;467782;255;1019;-79
2022/01/28 03:42:31;;;;;;;;;;;21.90;28.90;;;;;;467714;255;1478;-79
2022/01/28 03:44:32;;;;;;;;;;;21.60;29.10;;;;;;467851;255;2141;-79
2022/01/28 03:46:33;;;;;;;;;;;21.50;29.10;;;;;;467815;255;1324;-79
2022/01/28 03:48:35;;;;;;;;;;;21.40;29.40;;;;;;467874;255;1135;-79
2022/01/28 03:50:36;;;;;;;;;;;21.20;29.70;;;;;;467838;255;1123;-79
2022/01/28 03:52:37;;;;;;;;;;;21.30;29.40;;;;;;467854;255;1108;-79
2022/01/28 03:54:39;;;;;;;;;;;21.50;29.30;;;;;;467814;255;952;-79
2022/01/28 03:56:40;;;;;;;;;;;21.60;29.30;;;;;;467691;251;1204;-79
2022/01/28 03:58:41;;;;;;;;;;;21.70;29.20;;;;;;467794;255;1622;-79
2022/01/28 04:00:43;;;;;;;;;;;22.20;28.70;;;;;;467796;255;1405;-79
2022/01/28 04:02:46;;;;;;;;;;;22.10;28.70;;;;;;467880;255;1140;-79
2022/01/28 04:11:50;;;;;;;;;;;22.30;28.60;;;;;;467780;255;1126;-79
2022/01/28 04:13:52;;;;;;;;;;;21.80;29.10;;;;;;467567;254;1484;-79
2022/01/28 04:16:04;;;;;;;;;;;21.40;29.40;;;;;;467610;255;1306;-79
2022/01/28 04:17:52;;;;;;;;;;;21.50;29.60;;;;;;466842;255;1454;-79
2022/01/28 04:19:53;;;;;;;;;;;21.30;29.50;;;;;;467787;255;978;-79
2022/01/28 04:21:55;;;;;;;;;;;21.60;29.60;;;;;;467714;255;1176;-79
2022/01/28 04:23:56;;;;;;;;;;;21.20;29.60;;;;;;467806;255;970;-79
2022/01/28 04:25:57;;;;;;;;;;;21.00;29.80;;;;;;467723;255;2203;-79
2022/01/28 04:27:59;;;;;;;;;;;20.90;29.80;;;;;;467883;255;1111;-79
2022/01/28 04:30:00;;;;;;;;;;;21.60;29.50;;;;;;467820;255;969;-79
2022/01/28 04:32:01;;;;;;;;;;;20.90;29.80;;;;;;467846;255;1167;-80
2022/01/28 04:34:03;;;;;;;;;;;21.10;29.70;;;;;;467779;255;997;-79
2022/01/28 04:36:06;;;;;;;;;;;21.10;29.90;;;;;;467718;255;1214;-79
2022/01/28 04:38:17;;;;;;;;;;;20.90;30.00;;;;;;467765;255;1426;-79
2022/01/28 04:40:13;;;;;;;;;;;20.50;30.20;;;;;;466907;255;1428;-79
2022/01/28 04:42:24;;;;;;;;;;;20.80;30.20;;;;;;467801;255;1545;-79
2022/01/28 04:44:24;;;;;;;;;;;20.50;30.30;;;;;;467267;254;2161;-79
2022/01/28 04:46:29;;;;;;;;;;;20.50;30.50;;;;;;467312;254;1465;-79
2022/01/28 04:48:28;;;;;;;;;;;20.30;30.70;;;;;;467336;255;1459;-79
2022/01/28 04:50:32;;;;;;;;;;;20.30;30.60;;;;;;467467;255;1479;-79
2022/01/28 04:55:01;;;;;;;;;;;20.10;30.90;;;;;;454640;255;1216;-79
2022/01/28 04:57:00;;;;;;;;;;;20.10;31.10;;;;;;467025;255;1470;-79
2022/01/28 04:59:15;;;;;;;;;;;20.10;31.00;;;;;;467217;254;1455;-79
2022/01/28 05:01:22;;;;;;;;;;;20.50;30.30;;;;;;466707;255;1437;-79
2022/01/28 05:03:32;;;;;;;;;;;20.30;30.70;;;;;;466922;255;1306;-79
2022/01/28 05:05:49;;;;;;;;;;;20.20;30.80;;;;;;467105;255;2196;-79
2022/01/28 05:08:00;;;;;;;;;;;20.00;31.00;;;;;;466730;255;1518;-79
2022/01/28 05:14:47;;;;;;;;;;;20.00;31.10;;;;;;467898;255;1095;-78
2022/01/28 05:16:56;;;;;;;;;;;20.10;31.10;;;;;;466721;255;1431;-79
2022/01/28 05:26:22;;;;;;;;;;;19.70;31.60;;;;;;454090;255;2209;-79
2022/01/28 05:28:04;;;;;;;;;;;19.70;31.50;;;;;;466578;255;1418;-79
2022/01/28 05:30:05;;;;;;;;;;;20.20;30.90;;;;;;467900;255;1150;-79
2022/01/28 05:32:06;;;;;;;;;;;19.80;31.30;;;;;;467887;255;1230;-79
2022/01/28 05:34:07;;;;;;;;;;;19.80;31.30;;;;;;467820;255;1121;-79
2022/01/28 05:36:09;;;;;;;;;;;20.00;31.30;;;;;;467682;255;1351;-78
2022/01/28 05:38:10;;;;;;;;;;;19.90;31.20;;;;;;467779;255;1092;-79
2022/01/28 05:40:11;;;;;;;;;;;20.00;30.80;;;;;;467871;255;960;-79
2022/01/28 05:42:13;;;;;;;;;;;20.00;30.90;;;;;;467872;255;1235;-79
2022/01/28 05:44:14;;;;;;;;;;;19.70;31.30;;;;;;467808;255;1165;-79
2022/01/28 05:46:17;;;;;;;;;;;19.90;31.30;;;;;;467794;255;2196;-78
2022/01/28 05:48:17;;;;;;;;;;;19.60;31.50;;;;;;467661;255;1518;-79
2022/01/28 05:50:18;;;;;;;;;;;19.60;31.40;;;;;;467811;255;990;-79
2022/01/28 05:52:19;;;;;;;;;;;19.70;31.30;;;;;;467742;255;1136;-79
2022/01/28 05:54:21;;;;;;;;;;;19.60;31.60;;;;;;467827;255;1019;-78
2022/01/28 05:56:22;;;;;;;;;;;19.60;31.70;;;;;;467804;254;1477;-79
2022/01/28 05:58:23;;;;;;;;;;;19.40;31.90;;;;;;467848;255;1151;-79
2022/01/28 06:00:25;;;;;;;;;;;19.90;31.10;;;;;;467820;255;1165;-79
2022/01/28 06:02:26;;;;;;;;;;;19.80;31.40;;;;;;467741;255;1161;-78
2022/01/28 06:04:28;;;;;;;;;;;19.70;31.60;;;;;;467814;255;1051;-79
2022/01/28 06:06:29;;;;;;;;;;;19.70;31.30;;;;;;467697;255;2183;-78
2022/01/28 06:08:30;;;;;;;;;;;19.60;31.40;;;;;;467710;255;1066;-79
2022/01/28 06:10:31;;;;;;;;;;;19.50;31.50;;;;;;467725;255;1060;-79
2022/01/28 06:12:32;;;;;;;;;;;19.50;31.80;;;;;;467747;255;1099;-79
2022/01/28 06:14:34;;;;;;;;;;;19.60;31.60;;;;;;467775;255;1198;-79
2022/01/28 06:16:35;;;;;;;;;;;19.30;31.80;;;;;;467746;254;1146;-79
2022/01/28 06:18:36;;;;;;;;;;;19.40;31.90;;;;;;467788;255;1133;-79
2022/01/28 06:20:38;;;;;;;;;;;19.50;31.70;;;;;;467606;255;1220;-79
2022/01/28 06:22:39;;;;;;;;;;;19.60;31.70;;;;;;467769;255;1202;-79
2022/01/28 06:24:40;;;;;;;;;;;19.80;31.30;;;;;;467718;255;994;-79
2022/01/28 06:26:42;;;;;;;;;;;19.70;31.30;;;;;;467673;255;2180;-79
2022/01/28 06:28:43;;;;;;;;;;;19.80;31.40;;;;;;467672;255;1014;-79
2022/01/28 06:30:44;;;;;;;;;;;20.40;30.40;;;;;;467666;255;1230;-79
2022/01/28 06:32:47;;;;;;;;;;;20.60;30.30;;;;;;467549;255;1121;-79
2022/01/28 06:34:47;;;;;;;;;;;20.40;30.40;;;;;;467548;255;1428;-78
2022/01/28 06:36:49;;;;;;;;;;;20.50;30.10;;;;;;467616;255;1170;-79
2022/01/28 06:38:50;;;;;;;;;;;20.80;30.00;;;;;;467648;255;1008;-79
2022/01/28 06:40:51;;;;;;;;;;;20.90;30.00;;;;;;467683;255;1259;-78
2022/01/28 06:42:52;;;;;;;;;;;20.50;30.10;;;;;;467732;255;1158;-79
2022/01/28 06:44:54;;;;;;;;;;;20.80;29.90;;;;;;467712;255;1147;-79
2022/01/28 06:46:55;;;;;;;;;;;20.70;30.00;;;;;;467687;255;1148;-79
2022/01/28 06:48:56;;;;;;;;;;;20.50;30.30;;;;;;467655;255;995;-79
2022/01/28 06:50:57;;;;;;;;;;;20.80;30.00;;;;;;467627;255;1325;-79
2022/01/28 06:52:59;;;;;;;;;;;20.70;30.20;;;;;;467649;255;1164;-78
2022/01/28 06:55:01;;;;;;;;;;;20.40;30.30;;;;;;467752;255;1065;-79
2022/01/28 06:57:02;;;;;;;;;;;20.60;30.20;;;;;;467681;255;1235;-79
2022/01/28 06:59:04;;;;;;;;;;;20.70;30.20;;;;;;467769;255;1023;-79
2022/01/28 07:01:05;;;;;;;;;;;20.70;30.00;;;;;;467637;255;1125;-79
2022/01/28 07:03:06;;;;;;;;;;;20.80;30.10;;;;;;467678;255;1102;-79
2022/01/28 07:05:08;;;;;;;;;;;20.70;30.00;;;;;;467494;255;2188;-79
2022/01/28 07:07:09;;;;;;;;;;;20.70;30.00;;;;;;467461;255;1064;-79
2022/01/28 07:09:10;;;;;;;;;;;21.30;29.60;;;;;;467444;255;1060;-79
2022/01/28 07:11:12;;;;;;;;;;;21.00;29.70;;;;;;467313;255;1250;-79
2022/01/28 07:13:13;;;;;;;;;;;20.50;30.10;;;;;;467387;255;1117;-79
2022/01/28 07:15:14;;;;;;;;;;;20.50;30.30;;;;;;467475;254;1178;-78
2022/01/28 07:17:16;;;;;;;;;;;20.90;30.10;;;;;;467403;255;1127;-79
2022/01/28 07:19:17;;;;;;;;;;;20.90;29.70;;;;;;467274;255;1119;-78
2022/01/28 07:21:18;;;;;;;;;;;20.80;29.90;;;;;;467433;255;1219;-78
2022/01/28 07:23:19;;;;;;;;;;;20.90;29.90;;;;;;467388;255;1092;-78
2022/01/28 07:25:21;;;;;;;;;;;21.10;29.80;;;;;;467390;255;2212;-79
2022/01/28 07:27:22;;;;;;;;;;;21.20;29.60;;;;;;467288;255;1122;-78
2022/01/28 07:29:28;;;;;;;;;;;21.30;29.60;;;;;;467441;255;1126;-78
2022/01/28 07:31:25;;;;;;;;;;;20.80;29.90;;;;;;467046;255;1623;-78
2022/01/28 07:33:26;;;;;;;;;;;20.90;30.00;;;;;;467351;255;1117;-79
2022/01/28 07:35:28;;;;;;;;;;;20.80;30.20;;;;;;467348;255;1361;-78
2022/01/28 07:37:29;;;;;;;;;;;20.80;30.20;;;;;;467397;255;1064;-79
2022/01/28 07:39:30;;;;;;;;;;;20.90;30.10;;;;;;467403;255;1097;-79
2022/01/28 07:41:32;;;;;;;;;;;21.00;30.10;;;;;;467348;254;1229;-78
2022/01/28 07:43:37;;;;;;;;;;;20.80;30.00;;;;;;467455;255;1050;-78
2022/01/28 07:45:35;;;;;;;;;;;20.90;29.90;;;;;;467155;255;2193;-79
2022/01/28 07:47:36;;;;;;;;;;;21.20;29.90;;;;;;467410;255;1246;-79
2022/01/28 07:49:38;;;;;;;;;;;21.40;29.60;;;;;;467369;255;1017;-78
2022/01/28 07:51:40;;;;;;;;;;;21.90;29.10;;;;;;467303;255;1200;-79
2022/01/28 07:53:40;;;;;;;;;;;21.40;29.40;;;;;;467301;255;1430;-79
2022/01/28 07:55:42;;;;;;;;;;;21.40;29.60;;;;;;467342;255;1253;-79
2022/01/28 07:57:43;;;;;;;;;;;21.60;29.40;;;;;;467267;255;1281;-79
2022/01/28 07:59:44;;;;;;;;;;;21.50;29.40;;;;;;467313;255;1178;-78
2022/01/28 08:01:46;;;;;;;;;;;21.50;29.40;;;;;;467371;255;1209;-79
2022/01/28 08:03:47;;;;;;;;;;;21.60;29.20;;;;;;467320;255;1129;-79
2022/01/28 08:05:48;;;;;;;;;;;21.80;29.10;;;;;;467167;255;2207;-79
2022/01/28 08:07:51;;;;;;;;;;;21.60;29.20;;;;;;467232;255;1238;-78
2022/01/28 08:09:51;;;;;;;;;;;21.90;29.20;;;;;;467221;255;1513;-78
2022/01/28 08:11:52;;;;;;;;;;;22.00;28.90;;;;;;467234;255;1172;-79
2022/01/28 08:13:55;;;;;;;;;;;21.90;29.00;;;;;;467220;255;1009;-79
2022/01/28 08:15:55;;;;;;;;;;;21.80;29.00;;;;;;467207;255;1511;-78
2022/01/28 08:17:56;;;;;;;;;;;21.70;28.90;;;;;;467354;255;1148;-78
2022/01/28 08:19:58;;;;;;;;;;;21.50;29.20;;;;;;467306;255;1278;-78
2022/01/28 08:21:59;;;;;;;;;;;21.20;29.50;;;;;;467259;255;1196;-79
2022/01/28 08:24:00;;;;;;;;;;;21.10;29.60;;;;;;467221;255;1202;-79
2022/01/28 08:26:02;;;;;;;;;;;21.00;29.70;;;;;;467033;255;2176;-79
2022/01/28 08:28:03;;;;;;;;;;;21.20;29.70;;;;;;467190;255;1211;-78
2022/01/28 08:30:04;;;;;;;;;;;21.10;29.80;;;;;;467096;255;1195;-78
2022/01/28 08:32:06;;;;;;;;;;;21.30;29.70;;;;;;467042;255;1295;-78
2022/01/28 08:34:07;;;;;;;;;;;21.30;29.70;;;;;;467237;255;1247;-78
2022/01/28 08:36:08;;;;;;;;;;;21.30;29.60;;;;;;467261;254;1173;-78
2022/01/28 08:38:15;;;;;;;;;;;21.50;29.40;;;;;;467304;255;1119;-78
2022/01/28 08:40:14;;;;;;;;;;;21.60;29.20;;;;;;467103;255;1410;-79
2022/01/28 08:42:16;;;;;;;;;;;21.90;29.00;;;;;;467377;255;1206;-78
2022/01/28 08:44:17;;;;;;;;;;;21.60;29.20;;;;;;467025;255;1515;-79
2022/01/28 08:46:18;;;;;;;;;;;21.80;29.00;;;;;;467031;255;2196;-78
2022/01/28 08:48:19;;;;;;;;;;;22.00;28.90;;;;;;467104;255;984;-78
2022/01/28 08:50:21;;;;;;;;;;;22.00;28.90;;;;;;466938;255;1054;-79
2022/01/28 08:52:22;;;;;;;;;;;21.90;29.00;;;;;;467078;255;1144;-79
2022/01/28 08:54:23;;;;;;;;;;;22.00;29.00;;;;;;466895;255;990;-79
2022/01/28 08:56:25;;;;;;;;;;;21.80;28.90;;;;;;466821;254;1111;-78
2022/01/28 08:58:26;;;;;;;;;;;21.90;28.90;;;;;;466980;255;1030;-78
2022/01/28 09:00:27;;;;;;;;;;;22.30;28.80;;;;;;467088;255;1234;-79
2022/01/28 09:02:29;;;;;;;;;;;22.00;28.90;;;;;;467253;255;1049;-79
2022/01/28 09:04:30;;;;;;;;;;;22.00;29.00;;;;;;467008;255;988;-78
2022/01/28 09:06:31;;;;;;;;;;;21.90;28.80;;;;;;466912;254;2204;-78
2022/01/28 09:08:33;;;;;;;;;;;21.70;29.10;;;;;;467111;255;1070;-78
2022/01/28 09:10:35;;;;;;;;;;;21.70;29.10;;;;;;467204;255;1208;-78
2022/01/28 09:12:39;;;;;;;;;;;21.10;29.50;;;;;;467046;255;1331;-78
2022/01/28 09:14:37;;;;;;;;;;;20.90;29.80;;;;;;466772;255;1473;-78
2022/01/28 09:16:38;;;;;;;;;;;20.80;29.90;;;;;;466934;255;1262;-78
2022/01/28 09:18:39;;;;;;;;;;;20.70;30.00;;;;;;466967;255;993;-78
2022/01/28 09:20:41;;;;;;;;;;;20.80;30.00;;;;;;467043;255;1045;-78
2022/01/28 09:22:42;;;;;;;;;;;20.80;30.00;;;;;;467119;255;1330;-78
2022/01/28 09:24:43;;;;;;;;;;;20.60;30.10;;;;;;467179;255;1185;-78
2022/01/28 09:26:45;;;;;;;;;;;20.50;30.10;;;;;;467183;255;2199;-78
2022/01/28 09:28:46;;;;;;;;;;;20.30;30.50;;;;;;467153;255;1032;-79
2022/01/28 09:30:48;;;;;;;;;;;20.30;30.40;;;;;;467163;255;1253;-78
2022/01/28 09:32:49;;;;;;;;;;;20.20;30.60;;;;;;467201;255;1094;-78
2022/01/28 09:34:50;;;;;;;;;;;20.20;30.70;;;;;;467171;255;1104;-78
2022/01/28 09:36:53;;;;;;;;;;;20.10;30.60;;;;;;467265;255;1213;-79
2022/01/28 09:38:53;;;;;;;;;;;20.00;30.80;;;;;;467042;255;1387;-78
2022/01/28 09:40:56;;;;;;;;;;;20.00;30.80;;;;;;466883;255;1328;-78
2022/01/28 09:42:56;;;;;;;;;;;20.30;30.60;;;;;;467319;255;1376;-78
2022/01/28 09:44:58;;;;;;;;;;;19.90;30.80;;;;;;467163;255;1097;-78
2022/01/28 09:46:59;;;;;;;;;;;19.80;31.00;;;;;;466973;255;2216;-78
2022/01/28 09:49:01;;;;;;;;;;;19.80;31.10;;;;;;467013;255;1234;-78
2022/01/28 09:51:02;;;;;;;;;;;19.80;31.10;;;;;;467002;255;1208;-79
2022/01/28 09:53:03;;;;;;;;;;;19.70;31.20;;;;;;467295;255;1115;-78
2022/01/28 09:55:05;;;;;;;;;;;19.80;31.00;;;;;;467093;255;1175;-78
2022/01/28 09:57:07;;;;;;;;;;;19.80;30.90;;;;;;467029;255;1104;-78
2022/01/28 09:59:08;;;;;;;;;;;19.80;31.10;;;;;;467076;255;1186;-78
2022/01/28 10:01:09;;;;;;;;;;;19.80;31.10;;;;;;467064;255;1320;-78
2022/01/28 10:03:11;;;;;;;;;;;19.70;31.00;;;;;;467025;255;1118;-79
2022/01/28 10:05:12;;;;;;;;;;;19.60;31.20;;;;;;467003;255;1017;-78
2022/01/28 10:07:13;;;;;;;;;;;19.70;31.20;;;;;;467044;255;2209;-78
2022/01/28 10:09:16;;;;;;;;;;;19.80;31.10;;;;;;466968;255;1181;-79
2022/01/28 10:11:17;;;;;;;;;;;19.80;31.00;;;;;;466919;255;1356;-78
2022/01/28 10:13:20;;;;;;;;;;;19.60;31.10;;;;;;467032;255;1569;-79
2022/01/28 10:15:20;;;;;;;;;;;19.70;31.30;;;;;;466811;255;1300;-78
2022/01/28 10:17:21;;;;;;;;;;;19.50;31.20;;;;;;466938;255;1355;-78
2022/01/28 10:19:21;;;;;;;;;;;19.50;31.40;;;;;;466823;255;1312;-78
2022/01/28 10:21:23;;;;;;;;;;;19.50;31.20;;;;;;466974;251;1199;-78
2022/01/28 10:23:24;;;;;;;;;;;19.50;31.30;;;;;;467176;255;1051;-78
2022/01/28 10:25:25;;;;;;;;;;;19.90;31.10;;;;;;466338;255;1050;-78
2022/01/28 10:27:27;;;;;;;;;;;19.70;31.00;;;;;;466756;255;2208;-78
2022/01/28 10:29:28;;;;;;;;;;;19.70;31.20;;;;;;467075;255;1004;-78
2022/01/28 10:31:29;;;;;;;;;;;19.70;31.10;;;;;;466781;255;1178;-78
2022/01/28 10:33:31;;;;;;;;;;;19.60;31.20;;;;;;466957;255;1175;-78
2022/01/28 10:35:32;;;;;;;;;;;19.80;31.00;;;;;;467129;255;1151;-78
2022/01/28 10:37:33;;;;;;;;;;;19.60;31.10;;;;;;467039;255;1180;-78
2022/01/28 10:39:35;;;;;;;;;;;19.70;31.20;;;;;;467077;255;1145;-78
2022/01/28 10:41:36;;;;;;;;;;;19.60;31.20;;;;;;467035;255;1201;-78
2022/01/28 10:43:38;;;;;;;;;;;19.70;31.10;;;;;;467006;255;975;-78
2022/01/28 10:45:41;;;;;;;;;;;19.60;31.10;;;;;;466800;255;1465;-78
2022/01/28 10:47:40;;;;;;;;;;;19.60;31.10;;;;;;466574;255;2181;-76
2022/01/28 10:49:41;;;;;;;;;;;19.80;31.10;;;;;;466891;255;1123;-76
2022/01/28 10:51:42;;;;;;;;;;;20.00;30.60;;;;;;467065;255;1112;-77
2022/01/28 10:53:44;;;;;;;;;;;20.20;30.60;;;;;;467270;255;1007;-79
2022/01/28 10:55:45;;;;;;;;;;;20.20;30.30;;;;;;466892;255;1196;-78
2022/01/28 10:57:46;;;;;;;;;;;20.20;30.40;;;;;;467101;255;1202;-78
2022/01/28 10:59:48;;;;;;;;;;;20.10;30.40;;;;;;467143;255;1018;-78
2022/01/28 11:01:49;;;;;;;;;;;20.20;30.40;;;;;;467200;255;1229;-78
2022/01/28 11:03:50;;;;;;;;;;;20.20;30.30;;;;;;467088;255;1122;-78
2022/01/28 11:05:54;;;;;;;;;;;20.30;30.30;;;;;;467146;255;1384;-79
2022/01/28 11:07:53;;;;;;;;;;;20.40;30.30;;;;;;466923;255;2196;-78
2022/01/28 11:09:54;;;;;;;;;;;20.40;30.00;;;;;;466942;255;991;-78
2022/01/28 11:11:56;;;;;;;;;;;20.60;30.00;;;;;;466912;255;1209;-78
2022/01/28 11:13:57;;;;;;;;;;;20.60;30.00;;;;;;467021;255;1158;-78
2022/01/28 11:15:58;;;;;;;;;;;20.60;29.90;;;;;;467168;254;1170;-78
2022/01/28 11:18:00;;;;;;;;;;;20.80;29.70;;;;;;467141;255;1335;-78
2022/01/28 11:20:01;;;;;;;;;;;20.90;29.50;;;;;;467140;255;1182;-78
2022/01/28 11:22:05;;;;;;;;;;;21.40;29.30;;;;;;467058;255;1116;-78
2022/01/28 11:24:04;;;;;;;;;;;21.40;29.10;;;;;;466954;255;1427;-78
2022/01/28 11:26:05;;;;;;;;;;;21.30;29.10;;;;;;467101;255;1412;-78
2022/01/28 11:28:06;;;;;;;;;;;21.20;29.20;;;;;;467036;255;2200;-78
2022/01/28 11:30:08;;;;;;;;;;;21.50;29.00;;;;;;467122;255;1032;-78
2022/01/28 11:32:09;;;;;;;;;;;21.30;29.10;;;;;;466938;255;1259;-78
2022/01/28 11:34:10;;;;;;;;;;;21.40;29.00;;;;;;466996;255;1146;-78
2022/01/28 11:36:11;;;;;;;;;;;21.50;28.90;;;;;;467101;255;1365;-79
2022/01/28 11:38:13;;;;;;;;;;;21.60;28.70;;;;;;467181;255;1107;-78
2022/01/28 11:40:14;;;;;;;;;;;21.80;28.70;;;;;;466976;255;1285;-78
2022/01/28 11:42:17;;;;;;;;;;;21.60;28.70;;;;;;467075;255;1127;-78
2022/01/28 11:44:17;;;;;;;;;;;22.00;28.60;;;;;;467031;255;1452;-78
2022/01/28 11:46:19;;;;;;;;;;;22.30;28.40;;;;;;467070;255;1100;-78
2022/01/28 11:48:20;;;;;;;;;;;22.10;28.20;;;;;;467038;255;2499;-78
2022/01/28 11:50:21;;;;;;;;;;;22.40;28.10;;;;;;467120;255;1125;-78
2022/01/28 11:52:22;;;;;;;;;;;22.20;28.10;;;;;;467244;255;1411;-78
2022/01/28 11:54:25;;;;;;;;;;;22.30;28.20;;;;;;467193;255;1038;-79
2022/01/28 11:56:25;;;;;;;;;;;22.30;28.20;;;;;;467257;255;1466;-78
2022/01/28 11:58:26;;;;;;;;;;;22.20;28.10;;;;;;467209;255;1182;-79
2022/01/28 12:00:28;;;;;;;;;;;22.30;28.20;;;;;;466946;255;1200;-78
2022/01/28 12:02:29;;;;;;;;;;;22.20;28.10;;;;;;467033;255;1117;-78
2022/01/28 12:04:32;;;;;;;;;;;22.00;28.30;;;;;;467214;255;1028;-78
2022/01/28 12:06:32;;;;;;;;;;;22.40;28.20;;;;;;467197;255;1494;-78
2022/01/28 12:08:33;;;;;;;;;;;22.70;28.00;;;;;;467198;255;2196;-79
2022/01/28 12:10:40;;;;;;;;;;;22.60;27.90;;;;;;467092;255;1067;-78
2022/01/28 12:12:36;;;;;;;;;;;22.10;28.10;;;;;;466735;255;1485;-78
2022/01/28 12:14:37;;;;;;;;;;;22.40;28.10;;;;;;467087;255;988;-78
2022/01/28 12:16:42;;;;;;;;;;;22.80;27.80;;;;;;466999;255;1295;-78
2022/01/28 12:18:40;;;;;;;;;;;22.50;27.90;;;;;;466860;255;1325;-79
2022/01/28 12:20:41;;;;;;;;;;;22.70;27.80;;;;;;466870;255;1231;-78
2022/01/28 12:22:42;;;;;;;;;;;23.00;27.70;;;;;;467031;255;1101;-78
2022/01/28 12:24:44;;;;;;;;;;;22.60;27.70;;;;;;467047;255;1103;-79
2022/01/28 12:26:45;;;;;;;;;;;22.60;27.80;;;;;;467002;255;1272;-78
2022/01/28 12:28:46;;;;;;;;;;;22.70;27.90;;;;;;467121;255;2125;-78
2022/01/28 12:30:48;;;;;;;;;;;22.40;28.00;;;;;;467007;255;958;-78
2022/01/28 12:32:49;;;;;;;;;;;22.70;27.90;;;;;;467090;255;1195;-78
2022/01/28 12:34:50;;;;;;;;;;;22.70;27.90;;;;;;467029;255;1246;-79
2022/01/28 12:36:52;;;;;;;;;;;22.90;27.60;;;;;;467033;255;1207;-78
2022/01/28 12:39:07;;;;;;;;;;;22.90;27.50;;;;;;467060;255;1074;-78
2022/01/28 12:41:07;;;;;;;;;;;23.00;27.60;;;;;;466756;255;1326;-78
2022/01/28 12:43:06;;;;;;;;;;;23.00;27.50;;;;;;467060;255;1236;-78